createdAt,value
2022-08-20T00:02:27.669Z,11.87
2022-08-20T00:04:56.167Z,12.07
2022-08-20T00:07:24.658Z,12.63
2022-08-20T00:09:54.624Z,11.40
2022-08-20T00:12:23.120Z,12.07
2022-08-20T00:14:51.603Z,10.33
2022-08-20T00:17:20.120Z,12.80
2022-08-20T00:19:48.719Z,11.70
2022-08-20T00:22:17.266Z,10.73
2022-08-20T00:24:45.738Z,10.87
2022-08-20T00:27:15.567Z,10.40
2022-08-20T00:29:44.004Z,10.53
2022-08-20T00:32:12.485Z,10.37
2022-08-20T00:34:42.295Z,10.57
2022-08-20T00:37:10.971Z,10.10
2022-08-20T00:39:39.514Z,8.90
2022-08-20T00:42:09.527Z,10.37
2022-08-20T00:44:47.400Z,8.70
2022-08-20T00:47:15.885Z,9.40
2022-08-20T00:49:45.484Z,10.37
2022-08-20T00:52:20.788Z,9.07
2022-08-20T00:54:56.301Z,9.87
2022-08-20T00:57:59.111Z,9.67
2022-08-20T01:00:30.956Z,8.83
2022-08-20T01:03:00.737Z,9.50
2022-08-20T01:05:30.072Z,8.80
2022-08-20T01:07:59.537Z,8.30
2022-08-20T01:10:35.722Z,9.30
2022-08-20T01:13:11.004Z,8.60
2022-08-20T01:15:46.616Z,8.97
2022-08-20T01:18:24.469Z,10.10
2022-08-20T01:20:58.679Z,9.60
2022-08-20T01:23:53.057Z,9.97
2022-08-20T01:26:28.083Z,8.70
2022-08-20T01:29:03.431Z,8.97
2022-08-20T01:31:35.441Z,9.47
2022-08-20T01:34:10.201Z,9.13
2022-08-20T01:36:46.282Z,9.27
2022-08-20T01:39:18.667Z,8.63
2022-08-20T01:42:04.590Z,8.90
2022-08-20T01:44:34.288Z,8.63
2022-08-20T01:47:15.158Z,8.70
2022-08-20T01:49:51.377Z,9.00
2022-08-20T01:52:32.190Z,8.63
2022-08-20T01:55:00.834Z,9.00
2022-08-20T01:57:30.770Z,9.60
2022-08-20T01:59:59.204Z,8.30
2022-08-20T02:02:28.117Z,9.73
2022-08-20T02:04:58.654Z,9.27
2022-08-20T02:07:27.173Z,8.57
2022-08-20T02:09:55.697Z,9.00
2022-08-20T02:12:24.117Z,8.80
2022-08-20T02:14:56.917Z,10.17
2022-08-20T02:17:28.096Z,8.87
2022-08-20T02:20:01.598Z,9.73
2022-08-20T02:22:40.664Z,9.30
2022-08-20T02:25:16.190Z,10.10
2022-08-20T02:27:48.657Z,9.67
2022-08-20T02:30:27.922Z,8.10
2022-08-20T02:32:57.250Z,9.77
2022-08-20T02:35:27.721Z,9.47
2022-08-20T02:37:56.837Z,10.60
2022-08-20T02:40:30.842Z,11.30
2022-08-20T02:43:00.856Z,10.50
2022-08-20T02:45:36.049Z,9.93
2022-08-20T02:48:06.197Z,10.20
2022-08-20T02:50:34.764Z,10.43
2022-08-20T02:53:03.217Z,10.30
2022-08-20T02:55:31.679Z,10.30
2022-08-20T02:58:01.654Z,10.50
2022-08-20T03:00:37.920Z,10.17
2022-08-20T03:03:08.713Z,10.30
2022-08-20T03:05:39.177Z,10.90
2022-08-20T03:08:10.677Z,9.30
2022-08-20T03:10:42.142Z,10.80
2022-08-20T03:13:12.533Z,11.07
2022-08-20T03:15:46.548Z,9.97
2022-08-20T03:18:15.684Z,10.13
2022-08-20T03:20:45.960Z,10.50
2022-08-20T03:23:19.186Z,10.57
2022-08-20T03:25:48.535Z,10.30
2022-08-20T03:28:18.396Z,10.60
2022-08-20T03:30:48.850Z,11.20
2022-08-20T03:33:17.665Z,10.97
2022-08-20T03:35:46.181Z,10.97
2022-08-20T03:38:17.789Z,10.50
2022-08-20T03:40:51.347Z,10.70
2022-08-20T03:43:20.548Z,11.27
2022-08-20T03:45:50.732Z,10.67
2022-08-20T03:48:22.011Z,10.40
2022-08-20T03:50:52.960Z,11.20
2022-08-20T03:53:21.421Z,10.60
2022-08-20T03:55:56.454Z,10.40
2022-08-20T03:58:31.609Z,10.40
2022-08-20T04:01:45.257Z,10.97
2022-08-20T04:03:58.601Z,9.63
2022-08-20T04:06:27.748Z,10.47
2022-08-20T04:08:56.312Z,10.30
2022-08-20T04:11:24.851Z,11.70
2022-08-20T04:13:53.365Z,11.00
2022-08-20T04:16:24.413Z,10.10
2022-08-20T04:18:58.580Z,11.17
2022-08-20T04:21:32.849Z,10.60
2022-08-20T04:24:03.305Z,11.50
2022-08-20T04:26:32.432Z,11.17
2022-08-20T04:29:00.923Z,9.37
2022-08-20T04:31:33.359Z,10.60
2022-08-20T04:34:03.131Z,11.57
2022-08-20T04:36:32.076Z,11.53
2022-08-20T04:39:00.563Z,11.67
2022-08-20T04:41:29.202Z,10.60
2022-08-20T04:43:59.062Z,10.47
2022-08-20T04:46:32.600Z,10.73
2022-08-20T04:49:03.320Z,11.30
2022-08-20T04:51:32.653Z,12.13
2022-08-20T04:54:02.559Z,10.73
2022-08-20T04:56:38.603Z,11.67
2022-08-20T04:59:08.235Z,11.13
2022-08-20T05:01:38.190Z,12.20
2022-08-20T05:04:06.690Z,11.43
2022-08-20T05:06:35.206Z,11.47
2022-08-20T05:09:03.956Z,11.53
2022-08-20T05:11:35.629Z,12.20
2022-08-20T05:14:09.016Z,11.37
2022-08-20T05:16:41.210Z,12.60
2022-08-20T05:19:13.009Z,12.20
2022-08-20T05:21:41.944Z,11.80
2022-08-20T05:24:12.117Z,12.13
2022-08-20T05:26:41.244Z,12.10
2022-08-20T05:29:09.748Z,13.20
2022-08-20T05:31:39.698Z,13.60
2022-08-20T05:34:12.082Z,11.83
2022-08-20T05:36:44.699Z,12.70
2022-08-20T05:39:14.338Z,13.63
2022-08-20T05:41:42.962Z,12.30
2022-08-20T05:44:13.979Z,13.20
2022-08-20T05:46:45.926Z,13.30
2022-08-20T05:49:19.485Z,12.60
2022-08-20T05:51:48.692Z,13.47
2022-08-20T05:54:17.172Z,12.70
2022-08-20T05:56:45.664Z,12.00
2022-08-20T05:59:14.280Z,13.40
2022-08-20T06:01:45.045Z,14.20
2022-08-20T06:04:24.754Z,13.03
2022-08-20T06:06:56.008Z,12.17
2022-08-20T06:09:30.936Z,11.73
2022-08-20T06:12:02.597Z,11.30
2022-08-20T06:14:32.326Z,11.87
2022-08-20T06:17:07.609Z,11.27
2022-08-20T06:19:38.458Z,11.67
2022-08-20T06:22:18.151Z,11.47
2022-08-20T06:24:54.113Z,10.77
2022-08-20T06:27:23.727Z,11.40
2022-08-20T06:29:53.336Z,10.40
2022-08-20T06:32:32.441Z,11.03
2022-08-20T06:35:03.124Z,11.83
2022-08-20T06:37:32.846Z,11.77
2022-08-20T06:40:06.080Z,11.10
2022-08-20T06:42:34.889Z,10.40
2022-08-20T06:45:05.796Z,9.17
2022-08-20T06:47:36.031Z,11.13
2022-08-20T06:50:08.081Z,10.50
2022-08-20T06:52:51.541Z,10.20
2022-08-20T06:55:22.914Z,10.50
2022-08-20T06:57:59.887Z,9.43
2022-08-20T07:00:31.437Z,10.20
2022-08-20T07:03:02.353Z,9.50
2022-08-20T07:05:32.613Z,9.47
2022-08-20T07:08:01.391Z,9.33
2022-08-20T07:10:31.485Z,9.23
2022-08-20T07:13:00.418Z,9.83
2022-08-20T07:15:28.959Z,8.93
2022-08-20T07:18:03.587Z,9.77
2022-08-20T07:20:35.547Z,9.10
2022-08-20T07:23:04.526Z,8.70
2022-08-20T07:25:34.869Z,9.87
2022-08-20T07:28:05.884Z,8.07
2022-08-20T07:30:56.989Z,9.10
2022-08-20T07:33:30.518Z,8.87
2022-08-20T07:36:00.322Z,8.73
2022-08-20T07:38:30.538Z,8.20
2022-08-20T07:41:04.765Z,8.30
2022-08-20T07:43:34.602Z,8.30
2022-08-20T07:46:09.184Z,8.83
2022-08-20T07:48:42.179Z,8.70
2022-08-20T07:51:11.805Z,9.53
2022-08-20T07:53:41.989Z,10.20
2022-08-20T07:56:14.628Z,9.10
2022-08-20T07:58:50.016Z,8.67
2022-08-20T08:01:21.122Z,8.63
2022-08-20T08:03:51.033Z,8.97
2022-08-20T08:06:29.469Z,9.70
2022-08-20T08:09:04.338Z,10.20
2022-08-20T08:11:35.847Z,8.93
2022-08-20T08:14:08.100Z,10.90
2022-08-20T08:16:38.504Z,10.20
2022-08-20T08:19:14.323Z,8.70
2022-08-20T08:21:44.175Z,11.27
2022-08-20T08:24:19.708Z,12.60
2022-08-20T08:26:50.695Z,12.83
2022-08-20T08:29:19.319Z,14.23
2022-08-20T08:31:47.923Z,13.77
2022-08-20T08:34:17.929Z,13.90
2022-08-20T08:36:47.585Z,12.20
2022-08-20T08:39:16.454Z,13.77
2022-08-20T08:41:49.541Z,14.50
2022-08-20T08:44:23.977Z,13.77
2022-08-20T08:46:57.542Z,14.67
2022-08-20T08:49:37.261Z,15.07
2022-08-20T08:52:14.645Z,15.63
2022-08-20T08:54:50.071Z,17.27
2022-08-20T08:57:19.104Z,16.00
2022-08-20T09:00:04.483Z,15.53
2022-08-20T09:02:36.518Z,19.20
2022-08-20T09:05:17.722Z,17.63
2022-08-20T09:07:53.287Z,19.80
2022-08-20T09:10:23.490Z,19.10
2022-08-20T09:12:52.345Z,20.10
2022-08-20T09:15:22.222Z,20.63
2022-08-20T09:17:51.254Z,19.57
2022-08-20T09:20:25.952Z,21.93
2022-08-20T09:22:56.509Z,23.10
2022-08-20T09:25:25.670Z,22.50
2022-08-20T09:27:54.142Z,24.90
2022-08-20T09:30:23.402Z,23.87
2022-08-20T09:32:51.993Z,22.77
2022-08-20T09:35:22.028Z,22.70
2022-08-20T09:37:52.193Z,24.97
2022-08-20T09:40:22.052Z,25.07
2022-08-20T09:42:51.786Z,25.50
2022-08-20T09:45:21.167Z,23.63
2022-08-20T09:47:56.595Z,25.63
2022-08-20T09:50:29.218Z,27.00
2022-08-20T09:53:02.069Z,26.90
2022-08-20T09:55:36.906Z,26.50
2022-08-20T09:58:14.830Z,27.17
2022-08-20T10:00:43.305Z,26.33
2022-08-20T10:03:11.821Z,26.07
2022-08-20T10:05:41.661Z,27.50
2022-08-20T10:08:12.861Z,27.87
2022-08-20T10:10:41.577Z,29.73
2022-08-20T10:13:13.312Z,29.23
2022-08-20T10:15:44.415Z,26.40
2022-08-20T10:18:12.984Z,30.00
2022-08-20T10:20:43.662Z,27.30
2022-08-20T10:23:12.849Z,31.50
2022-08-20T10:25:42.543Z,31.10
2022-08-20T10:28:11.176Z,28.70
2022-08-20T10:30:40.170Z,28.90
2022-08-20T10:33:08.644Z,27.43
2022-08-20T10:35:39.251Z,28.80
2022-08-20T10:38:09.065Z,29.87
2022-08-20T10:40:37.718Z,29.53
2022-08-20T10:43:06.143Z,30.40
2022-08-20T10:45:34.634Z,27.60
2022-08-20T10:48:07.551Z,29.10
2022-08-20T10:50:38.140Z,28.57
2022-08-20T10:53:07.962Z,27.63
2022-08-20T10:55:36.373Z,28.20
2022-08-20T10:58:07.230Z,29.20
2022-08-20T11:00:40.313Z,29.80
2022-08-20T11:03:09.042Z,26.40
2022-08-20T11:05:37.629Z,29.60
2022-08-20T11:08:08.408Z,29.10
2022-08-20T11:10:38.422Z,30.67
2022-08-20T11:13:12.086Z,30.90
2022-08-20T11:15:43.466Z,27.43
2022-08-20T11:18:13.381Z,30.03
2022-08-20T11:20:42.373Z,26.80
2022-08-20T11:23:12.114Z,27.97
2022-08-20T11:25:40.585Z,27.30
2022-08-20T11:28:09.096Z,28.00
2022-08-20T11:30:38.873Z,26.80
2022-08-20T11:33:08.226Z,29.40
2022-08-20T11:35:43.385Z,26.80
2022-08-20T11:38:19.469Z,27.63
2022-08-20T11:40:48.273Z,24.63
2022-08-20T11:43:17.938Z,25.00
2022-08-20T11:45:51.438Z,23.10
2022-08-20T11:48:20.141Z,21.30
2022-08-20T11:50:50.539Z,23.27
2022-08-20T11:53:20.396Z,22.27
2022-08-20T11:55:50.935Z,20.33
2022-08-20T11:58:19.576Z,22.40
2022-08-20T12:00:48.058Z,22.23
2022-08-20T12:03:17.134Z,21.17
2022-08-20T12:05:48.025Z,21.53
2022-08-20T12:08:24.987Z,22.53
2022-08-20T12:10:58.687Z,20.83
2022-08-20T12:13:30.809Z,20.67
2022-08-20T12:16:17.539Z,20.13
2022-08-20T12:18:46.293Z,20.47
2022-08-20T12:21:15.190Z,20.27
2022-08-20T12:23:45.161Z,21.13
2022-08-20T12:26:13.993Z,18.60
2022-08-20T12:28:42.427Z,20.70
2022-08-20T12:31:11.138Z,20.90
2022-08-20T12:33:39.658Z,20.00
2022-08-20T12:36:08.833Z,21.10
2022-08-20T12:38:37.420Z,21.63
2022-08-20T12:41:10.117Z,20.87
2022-08-20T12:43:38.744Z,20.70
2022-08-20T12:46:07.544Z,21.10
2022-08-20T12:48:36.081Z,20.70
2022-08-20T12:51:07.770Z,19.30
2022-08-20T12:53:36.194Z,18.23
2022-08-20T12:56:09.679Z,20.93
2022-08-20T12:58:38.163Z,20.77
2022-08-20T13:01:06.928Z,20.50
2022-08-20T13:03:44.820Z,20.20
2022-08-20T13:06:13.689Z,20.40
2022-08-20T13:08:42.340Z,20.77
2022-08-20T13:11:12.164Z,23.37
2022-08-20T13:13:40.683Z,21.80
2022-08-20T13:16:09.173Z,19.83
2022-08-20T13:18:37.595Z,19.50
2022-08-20T13:21:06.234Z,20.40
2022-08-20T13:23:34.759Z,18.90
2022-08-20T13:26:07.342Z,18.93
2022-08-20T13:28:37.322Z,19.57
2022-08-20T13:31:08.876Z,18.53
2022-08-20T13:33:37.433Z,19.77
2022-08-20T13:36:09.612Z,18.83
2022-08-20T13:38:38.137Z,19.93
2022-08-20T13:41:07.118Z,18.30
2022-08-20T13:43:37.013Z,19.17
2022-08-20T13:46:06.462Z,19.83
2022-08-20T13:48:35.039Z,19.20
2022-08-20T13:51:07.074Z,19.60
2022-08-20T13:53:35.746Z,19.87
2022-08-20T13:56:07.774Z,19.77
2022-08-20T13:58:37.734Z,19.47
2022-08-20T14:01:06.556Z,20.47
2022-08-20T14:03:35.179Z,19.20
2022-08-20T14:06:09.599Z,18.53
2022-08-20T14:08:38.468Z,18.73
2022-08-20T14:11:07.328Z,17.80
2022-08-20T14:13:42.655Z,18.90
2022-08-20T14:16:21.403Z,19.93
2022-08-20T14:18:56.375Z,18.33
2022-08-20T14:21:25.123Z,19.93
2022-08-20T14:23:53.605Z,18.13
2022-08-20T14:26:22.219Z,17.87
2022-08-20T14:28:52.091Z,18.73
2022-08-20T14:31:20.628Z,18.60
2022-08-20T14:33:51.530Z,17.60
2022-08-20T14:36:20.025Z,18.00
2022-08-20T14:38:48.521Z,17.10
2022-08-20T14:41:17.058Z,19.90
2022-08-20T14:43:45.515Z,18.00
2022-08-20T14:46:15.388Z,18.57
2022-08-20T14:48:43.850Z,18.50
2022-08-20T14:51:12.353Z,19.87
2022-08-20T14:53:40.858Z,21.50
2022-08-20T14:56:09.699Z,18.80
2022-08-20T14:58:38.176Z,19.83
2022-08-20T15:01:07.111Z,21.43
2022-08-20T15:03:37.037Z,18.77
2022-08-20T15:06:12.247Z,21.60
2022-08-20T15:08:50.736Z,21.87
2022-08-20T15:11:19.178Z,21.30
2022-08-20T15:13:47.616Z,17.40
2022-08-20T15:16:16.038Z,21.17
2022-08-20T15:18:45.975Z,19.23
2022-08-20T15:21:15.782Z,21.20
2022-08-20T15:23:46.548Z,20.40
2022-08-20T15:26:15.030Z,21.20
2022-08-20T15:28:43.561Z,19.57
2022-08-20T15:31:14.006Z,18.40
2022-08-20T15:33:43.361Z,19.90
2022-08-20T15:36:13.659Z,20.47
2022-08-20T15:38:42.099Z,19.93
2022-08-20T15:41:10.552Z,20.23
2022-08-20T15:43:39.068Z,19.43
2022-08-20T15:46:07.976Z,22.57
2022-08-20T15:48:40.867Z,22.67
2022-08-20T15:51:24.263Z,21.10
2022-08-20T15:54:00.278Z,23.23
2022-08-20T15:57:01.836Z,20.60
2022-08-20T16:00:00.287Z,21.20
2022-08-20T16:03:22.177Z,20.80
2022-08-20T16:06:00.709Z,20.97
2022-08-20T16:08:58.915Z,19.87
2022-08-20T16:11:53.436Z,20.97
2022-08-20T16:14:26.149Z,22.07
2022-08-20T16:17:02.474Z,21.07
2022-08-20T16:19:44.658Z,21.63
2022-08-20T16:22:18.441Z,21.60
2022-08-20T16:24:48.925Z,22.97
2022-08-20T16:27:34.949Z,21.63
2022-08-20T16:30:08.587Z,23.80
2022-08-20T16:32:44.601Z,23.70
2022-08-20T16:35:34.200Z,22.37
2022-08-20T16:38:20.852Z,21.60
2022-08-20T16:40:57.378Z,25.17
2022-08-20T16:43:36.444Z,22.00
2022-08-20T16:46:19.189Z,23.00
2022-08-20T16:48:57.964Z,23.27
2022-08-20T16:51:38.162Z,23.57
2022-08-20T16:54:07.389Z,23.40
2022-08-20T16:56:41.976Z,24.43
2022-08-20T16:59:24.580Z,25.30
2022-08-20T17:02:10.294Z,21.00
2022-08-20T17:04:58.516Z,19.90
2022-08-20T17:07:43.461Z,18.37
2022-08-20T17:10:21.519Z,19.03
2022-08-20T17:12:59.468Z,17.27
2022-08-20T17:15:31.598Z,15.60
2022-08-20T17:18:21.492Z,15.07
2022-08-20T17:20:50.146Z,13.90
2022-08-20T17:23:22.660Z,11.00
2022-08-20T17:26:00.494Z,12.23
2022-08-20T17:28:35.248Z,10.80
2022-08-20T17:31:07.160Z,12.10
2022-08-20T17:33:40.369Z,12.10
2022-08-20T17:36:19.777Z,11.00
2022-08-20T17:38:52.627Z,12.60
2022-08-20T17:41:26.514Z,11.43
2022-08-20T17:44:03.010Z,11.33
2022-08-20T17:46:36.973Z,12.90
2022-08-20T17:49:11.848Z,12.73
2022-08-20T17:51:51.543Z,12.20
2022-08-20T17:54:28.128Z,14.00
2022-08-20T17:57:04.440Z,14.57
2022-08-20T18:00:01.813Z,14.30
2022-08-20T18:02:30.918Z,13.80
2022-08-20T18:04:59.834Z,16.30
2022-08-20T18:07:37.513Z,15.63
2022-08-20T18:10:13.749Z,16.43
2022-08-20T18:12:53.070Z,18.90
2022-08-20T18:15:27.436Z,15.90
2022-08-20T18:18:18.658Z,18.20
2022-08-20T18:21:47.154Z,15.43
2022-08-20T18:24:24.487Z,17.53
2022-08-20T18:27:02.051Z,17.00
2022-08-20T18:29:36.018Z,16.03
2022-08-20T18:32:19.394Z,17.07
2022-08-20T18:34:48.227Z,17.00
2022-08-20T18:37:27.750Z,19.20
2022-08-20T18:40:11.439Z,17.37
2022-08-20T18:42:40.193Z,18.50
2022-08-20T18:45:10.144Z,18.53
2022-08-20T18:47:46.807Z,21.10
2022-08-20T18:50:24.924Z,21.13
2022-08-20T18:53:10.653Z,24.43
2022-08-20T18:55:42.977Z,21.77
2022-08-20T18:58:15.057Z,24.23
2022-08-20T19:00:47.175Z,28.93
2022-08-20T19:03:27.311Z,29.83
2022-08-20T19:06:26.303Z,29.40
2022-08-20T19:09:03.397Z,28.40
2022-08-20T19:12:09.957Z,29.90
2022-08-20T19:15:02.358Z,27.70
2022-08-20T19:17:49.565Z,27.73
2022-08-20T19:20:23.927Z,28.03
2022-08-20T19:22:56.485Z,28.93
2022-08-20T19:25:29.928Z,28.60
2022-08-20T19:28:00.941Z,28.63
2022-08-20T19:30:38.037Z,30.53
2022-08-20T19:33:08.398Z,27.70
2022-08-20T19:35:38.816Z,28.23
2022-08-20T19:38:09.631Z,28.27
2022-08-20T19:40:43.535Z,26.50
2022-08-20T19:43:20.289Z,27.40
2022-08-20T19:45:54.186Z,26.40
2022-08-20T19:48:56.218Z,26.33
2022-08-20T19:51:40.789Z,27.93
2022-08-20T19:54:22.549Z,27.87
2022-08-20T19:56:51.349Z,29.83
2022-08-20T19:59:22.486Z,28.53
2022-08-20T20:02:00.286Z,27.50
2022-08-20T20:04:37.207Z,27.00
2022-08-20T20:07:19.499Z,26.37
2022-08-20T20:09:56.261Z,26.13
2022-08-20T20:12:25.653Z,26.70
2022-08-20T20:14:56.179Z,25.00
2022-08-20T20:17:30.263Z,25.27
2022-08-20T20:20:24.582Z,24.90
2022-08-20T20:23:00.933Z,23.30
2022-08-20T20:25:44.582Z,23.13
2022-08-20T20:28:19.509Z,22.00
2022-08-20T20:30:49.266Z,22.00
2022-08-20T20:33:27.381Z,21.40
2022-08-20T20:36:09.288Z,21.87
2022-08-20T20:38:54.046Z,23.00
2022-08-20T20:41:28.231Z,21.20
2022-08-20T20:44:04.417Z,20.03
2022-08-20T20:46:35.761Z,19.60
2022-08-20T20:49:22.637Z,18.80
2022-08-20T20:51:59.762Z,17.00
2022-08-20T20:54:41.406Z,18.93
2022-08-20T20:57:38.764Z,16.87
2022-08-20T21:00:14.884Z,17.40
2022-08-20T21:02:43.594Z,18.90
2022-08-20T21:05:14.980Z,16.50
2022-08-20T21:07:50.128Z,18.80
2022-08-20T21:10:25.708Z,17.33
2022-08-20T21:12:56.033Z,19.00
2022-08-20T21:15:27.103Z,17.57
2022-08-20T21:17:59.258Z,19.10
2022-08-20T21:20:28.816Z,19.33
2022-08-20T21:22:58.898Z,22.70
2022-08-20T21:25:32.814Z,21.33
2022-08-20T21:28:01.700Z,21.73
2022-08-20T21:30:31.022Z,20.93
2022-08-20T21:32:59.697Z,21.00
2022-08-20T21:35:28.474Z,21.30
2022-08-20T21:37:56.914Z,18.53
2022-08-20T21:40:28.345Z,20.80
2022-08-20T21:42:58.662Z,19.70
2022-08-20T21:45:28.471Z,21.03
2022-08-20T21:47:57.479Z,21.53
2022-08-20T21:50:27.443Z,20.70
2022-08-20T21:52:59.448Z,21.50
2022-08-20T21:55:31.600Z,21.03
2022-08-20T21:58:05.138Z,21.77
2022-08-20T22:00:55.182Z,20.60
2022-08-20T22:03:27.316Z,21.13
2022-08-20T22:05:57.217Z,20.30
2022-08-20T22:08:28.309Z,21.40
2022-08-20T22:10:59.643Z,20.70
2022-08-20T22:13:33.514Z,19.30
2022-08-20T22:16:07.326Z,20.80
2022-08-20T22:18:36.657Z,20.53
2022-08-20T22:21:12.018Z,20.43
2022-08-20T22:23:40.594Z,20.37
2022-08-20T22:26:09.577Z,22.90
2022-08-20T22:28:40.259Z,22.97
2022-08-20T22:31:09.894Z,20.60
2022-08-20T22:33:40.377Z,21.33
2022-08-20T22:36:09.091Z,22.10
2022-08-20T22:38:37.812Z,19.77
2022-08-20T22:41:09.578Z,20.23
2022-08-20T22:43:55.646Z,20.90
2022-08-20T22:46:28.230Z,19.00
2022-08-20T22:48:57.638Z,22.80
2022-08-20T22:51:38.783Z,22.83
2022-08-20T22:54:12.133Z,21.50
2022-08-20T22:56:40.955Z,22.53
2022-08-20T22:59:11.151Z,22.87
2022-08-20T23:01:39.942Z,22.60
2022-08-20T23:04:15.653Z,24.20
2022-08-20T23:06:44.156Z,22.73
2022-08-20T23:09:12.907Z,21.10
2022-08-20T23:11:42.317Z,22.40
2022-08-20T23:14:12.408Z,21.77
2022-08-20T23:16:46.187Z,22.63
2022-08-20T23:19:21.422Z,22.10
2022-08-20T23:21:50.825Z,22.30
2022-08-20T23:24:20.926Z,23.63
2022-08-20T23:26:52.593Z,23.93
2022-08-20T23:29:25.531Z,24.00
2022-08-20T23:31:56.114Z,23.67
2022-08-20T23:34:24.924Z,24.50
2022-08-20T23:36:54.993Z,24.60
2022-08-20T23:39:24.960Z,23.00
2022-08-20T23:41:53.686Z,24.70
2022-08-20T23:44:25.896Z,22.47
2022-08-20T23:46:57.726Z,23.17
2022-08-20T23:49:27.428Z,23.67
2022-08-20T23:51:57.680Z,22.40
2022-08-20T23:54:26.200Z,24.60
2022-08-20T23:56:56.833Z,24.27
2022-08-20T23:59:27.360Z,22.70
